createdAt,value
2018-11-03T00:00:05.321Z,11.50
2018-11-03T00:00:44.960Z,11.40
2018-11-03T00:01:19.489Z,11.40
2018-11-03T00:01:54.461Z,11.40
2018-11-03T00:02:29.261Z,11.40
2018-11-03T00:03:04.264Z,11.40
2018-11-03T00:03:38.940Z,11.40
2018-11-03T00:04:13.660Z,11.40
2018-11-03T00:04:48.480Z,11.40
2018-11-03T00:05:23.260Z,11.40
2018-11-03T00:05:58.181Z,11.40
2018-11-03T00:06:32.900Z,11.40
2018-11-03T00:07:07.601Z,11.40
2018-11-03T00:07:42.421Z,11.40
2018-11-03T00:08:17.009Z,11.40
2018-11-03T00:08:51.861Z,11.30
2018-11-03T00:09:26.601Z,11.30
2018-11-03T00:10:01.501Z,11.30
2018-11-03T00:10:36.401Z,11.30
2018-11-03T00:11:10.960Z,11.30
2018-11-03T00:11:45.561Z,11.30
2018-11-03T00:12:20.161Z,11.40
2018-11-03T00:12:54.801Z,11.30
2018-11-03T00:13:29.481Z,11.40
2018-11-03T00:14:04.227Z,11.40
2018-11-03T00:14:38.921Z,11.40
2018-11-03T00:15:13.543Z,11.40
2018-11-03T00:15:48.201Z,11.40
2018-11-03T00:16:22.821Z,11.40
2018-11-03T00:16:57.401Z,11.40
2018-11-03T00:17:32.181Z,11.40
2018-11-03T00:18:07.201Z,11.40
2018-11-03T00:18:41.922Z,11.40
2018-11-03T00:19:16.580Z,11.40
2018-11-03T00:19:51.241Z,11.40
2018-11-03T00:20:25.941Z,11.40
2018-11-03T00:21:00.541Z,11.40
2018-11-03T00:21:35.101Z,11.50
2018-11-03T00:22:09.781Z,11.40
2018-11-03T00:22:44.401Z,11.40
2018-11-03T00:23:19.100Z,11.50
2018-11-03T00:23:53.808Z,11.50
2018-11-03T00:24:28.445Z,11.50
2018-11-03T00:25:03.041Z,11.50
2018-11-03T00:25:37.961Z,11.50
2018-11-03T00:26:12.461Z,11.50
2018-11-03T00:26:47.140Z,11.50
2018-11-03T00:27:21.681Z,11.50
2018-11-03T00:27:56.201Z,11.50
2018-11-03T00:28:30.734Z,11.50
2018-11-03T00:29:05.721Z,11.50
2018-11-03T00:29:40.240Z,11.50
2018-11-03T00:30:14.841Z,11.50
2018-11-03T00:30:49.321Z,11.50
2018-11-03T00:31:23.981Z,11.50
2018-11-03T00:31:58.547Z,11.50
2018-11-03T00:32:33.181Z,11.50
2018-11-03T00:33:07.741Z,11.50
2018-11-03T00:33:42.461Z,11.60
2018-11-03T00:34:17.042Z,11.50
2018-11-03T00:34:51.761Z,11.60
2018-11-03T00:35:26.300Z,11.60
2018-11-03T00:36:00.902Z,11.50
2018-11-03T00:36:35.421Z,11.60
2018-11-03T00:37:10.081Z,11.60
2018-11-03T00:37:44.521Z,11.60
2018-11-03T00:38:19.258Z,11.60
2018-11-03T00:38:53.780Z,11.60
2018-11-03T00:39:28.643Z,11.60
2018-11-03T00:40:03.141Z,11.60
2018-11-03T00:40:37.886Z,11.60
2018-11-03T00:41:12.321Z,11.50
2018-11-03T00:41:46.965Z,11.60
2018-11-03T00:42:21.600Z,11.60
2018-11-03T00:42:56.289Z,11.60
2018-11-03T00:43:30.801Z,11.60
2018-11-03T00:44:05.541Z,11.60
2018-11-03T00:44:40.311Z,11.60
2018-11-03T00:45:15.161Z,11.50
2018-11-03T00:45:49.763Z,11.60
2018-11-03T00:46:24.282Z,11.60
2018-11-03T00:46:58.981Z,11.60
2018-11-03T00:47:33.420Z,11.50
2018-11-03T00:48:08.097Z,11.50
2018-11-03T00:48:42.921Z,11.60
2018-11-03T00:49:17.621Z,11.50
2018-11-03T00:49:52.261Z,11.60
2018-11-03T00:50:26.861Z,11.60
2018-11-03T00:51:01.421Z,11.60
2018-11-03T00:51:36.084Z,11.50
2018-11-03T00:52:10.641Z,11.50
2018-11-03T00:52:45.601Z,11.60
2018-11-03T00:53:20.201Z,11.60
2018-11-03T00:53:54.826Z,11.60
2018-11-03T00:54:29.401Z,11.60
2018-11-03T00:55:04.281Z,11.60
2018-11-03T00:55:38.841Z,11.60
2018-11-03T00:56:13.481Z,11.60
2018-11-03T00:56:47.941Z,11.60
2018-11-03T00:57:22.601Z,11.60
2018-11-03T00:57:57.141Z,11.60
2018-11-03T00:58:31.843Z,11.60
2018-11-03T00:59:06.422Z,11.60
2018-11-03T00:59:41.040Z,11.60
2018-11-03T01:00:17.064Z,11.60
2018-11-03T01:00:51.701Z,11.60
2018-11-03T01:01:26.241Z,11.60
2018-11-03T01:02:00.940Z,11.60
2018-11-03T01:02:35.581Z,11.60
2018-11-03T01:03:10.241Z,11.60
2018-11-03T01:03:44.761Z,11.60
2018-11-03T01:04:19.361Z,11.60
2018-11-03T01:04:54.001Z,11.70
2018-11-03T01:05:28.682Z,11.60
2018-11-03T01:06:03.181Z,11.70
2018-11-03T01:06:37.621Z,11.70
2018-11-03T01:07:12.344Z,11.70
2018-11-03T01:07:47.360Z,11.70
2018-11-03T01:08:21.920Z,11.70
2018-11-03T01:08:56.661Z,11.70
2018-11-03T01:09:31.209Z,11.70
2018-11-03T01:15:11.201Z,11.80
2018-11-03T01:15:45.763Z,11.80
2018-11-03T01:16:20.401Z,11.80
2018-11-03T01:16:54.961Z,11.80
2018-11-03T01:17:29.341Z,11.80
2018-11-03T01:18:03.921Z,11.80
2018-11-03T01:18:38.601Z,11.80
2018-11-03T01:19:13.302Z,11.80
2018-11-03T01:19:47.861Z,11.80
2018-11-03T01:20:22.503Z,11.80
2018-11-03T01:20:57.161Z,11.80
2018-11-03T01:21:31.681Z,11.80
2018-11-03T01:22:06.404Z,11.80
2018-11-03T01:22:47.444Z,11.80
2018-11-03T01:23:22.009Z,11.80
2018-11-03T01:23:56.781Z,11.80
2018-11-03T01:24:31.428Z,11.80
2018-11-03T01:25:06.201Z,11.80
2018-11-03T01:25:40.821Z,11.80
2018-11-03T01:26:15.561Z,11.80
2018-11-03T01:26:50.001Z,11.80
2018-11-03T01:27:24.664Z,11.80
2018-11-03T01:27:59.201Z,11.80
2018-11-03T01:28:33.861Z,11.80
2018-11-03T01:29:08.280Z,11.80
2018-11-03T01:29:43.001Z,11.80
2018-11-03T01:30:18.021Z,11.80
2018-11-03T01:30:52.501Z,11.80
2018-11-03T01:31:27.004Z,11.80
2018-11-03T01:32:01.621Z,11.80
2018-11-03T01:32:36.343Z,11.80
2018-11-03T01:33:10.961Z,11.80
2018-11-03T01:33:45.502Z,11.80
2018-11-03T01:34:20.161Z,11.80
2018-11-03T01:34:54.701Z,11.80
2018-11-03T01:35:29.421Z,11.90
2018-11-03T01:36:03.985Z,11.90
2018-11-03T01:36:38.641Z,11.80
2018-11-03T01:37:13.184Z,11.90
2018-11-03T01:37:47.843Z,11.80
2018-11-03T01:38:22.383Z,11.90
2018-11-03T01:38:57.060Z,11.90
2018-11-03T01:39:31.701Z,11.80
2018-11-03T01:40:06.442Z,11.80
2018-11-03T01:40:41.020Z,11.90
2018-11-03T01:41:15.780Z,11.90
2018-11-03T01:41:50.240Z,11.80
2018-11-03T01:42:24.941Z,11.90
2018-11-03T01:42:59.361Z,11.90
2018-11-03T01:43:34.000Z,11.90
2018-11-03T01:44:08.761Z,11.90
2018-11-03T01:44:43.380Z,11.90
2018-11-03T01:45:17.960Z,11.90
2018-11-03T01:45:52.601Z,11.90
2018-11-03T01:46:27.201Z,11.90
2018-11-03T01:47:01.701Z,11.90
2018-11-03T01:47:36.549Z,11.90
2018-11-03T01:48:11.381Z,11.90
2018-11-03T01:48:46.023Z,11.90
2018-11-03T01:49:20.701Z,11.90
2018-11-03T01:49:55.100Z,11.90
2018-11-03T01:50:29.737Z,11.90
2018-11-03T01:51:04.440Z,11.90
2018-11-03T01:51:39.201Z,11.90
2018-11-03T01:52:13.801Z,12.00
2018-11-03T01:52:48.461Z,11.90
2018-11-03T01:53:23.041Z,12.00
2018-11-03T01:53:57.740Z,12.00
2018-11-03T01:54:32.120Z,12.00
2018-11-03T01:55:06.901Z,12.00
2018-11-03T01:55:41.340Z,12.00
2018-11-03T01:56:16.041Z,12.00
2018-11-03T01:56:50.641Z,12.00
2018-11-03T01:57:25.281Z,12.00
2018-11-03T01:57:59.801Z,12.00
2018-11-03T01:58:34.461Z,12.00
2018-11-03T01:59:09.082Z,12.00
2018-11-03T01:59:43.684Z,12.00
2018-11-03T02:00:18.221Z,12.00
2018-11-03T02:00:52.901Z,12.00
2018-11-03T02:01:27.441Z,12.00
2018-11-03T02:02:02.122Z,12.00
2018-11-03T02:02:36.661Z,12.00
2018-11-03T02:03:11.361Z,12.00
2018-11-03T02:03:45.901Z,12.00
2018-11-03T02:04:20.601Z,12.10
2018-11-03T02:04:55.141Z,12.00
2018-11-03T02:05:29.801Z,12.00
2018-11-03T02:06:04.241Z,12.10
2018-11-03T02:06:38.961Z,12.00
2018-11-03T02:07:13.682Z,12.00
2018-11-03T02:07:48.205Z,12.10
2018-11-03T02:08:22.881Z,12.10
2018-11-03T02:08:57.509Z,12.10
2018-11-03T02:09:32.120Z,12.10
2018-11-03T02:10:07.681Z,12.10
2018-11-03T02:10:42.241Z,12.10
2018-11-03T02:11:16.842Z,12.00
2018-11-03T02:11:51.462Z,12.00
2018-11-03T02:12:26.065Z,12.00
2018-11-03T02:13:00.681Z,12.00
2018-11-03T02:13:35.202Z,12.00
2018-11-03T02:14:09.921Z,12.10
2018-11-03T02:14:44.442Z,12.10
2018-11-03T02:15:19.121Z,12.10
2018-11-03T02:15:53.681Z,12.10
2018-11-03T02:16:28.361Z,12.10
2018-11-03T02:17:02.901Z,12.10
2018-11-03T02:17:37.661Z,12.10
2018-11-03T02:18:12.101Z,12.10
2018-11-03T02:18:46.782Z,12.10
2018-11-03T02:19:21.221Z,12.10
2018-11-03T02:19:55.907Z,12.10
2018-11-03T02:20:30.561Z,12.10
2018-11-03T02:21:05.324Z,12.10
2018-11-03T02:21:39.861Z,12.10
2018-11-03T02:22:14.442Z,12.10
2018-11-03T02:22:49.061Z,12.20
2018-11-03T02:23:23.462Z,12.10
2018-11-03T02:23:58.381Z,12.10
2018-11-03T02:24:32.801Z,12.10
2018-11-03T02:25:07.621Z,12.10
2018-11-03T02:25:42.301Z,12.10
2018-11-03T02:26:16.841Z,12.20
2018-11-03T02:26:51.405Z,12.20
2018-11-03T02:27:26.089Z,12.10
2018-11-03T02:28:00.642Z,12.20
2018-11-03T02:28:35.161Z,12.20
2018-11-03T02:29:10.082Z,12.20
2018-11-03T02:29:44.721Z,12.20
2018-11-03T02:30:19.342Z,12.20
2018-11-03T02:30:54.022Z,12.20
2018-11-03T02:31:28.561Z,12.20
2018-11-03T02:32:03.264Z,12.20
2018-11-03T02:32:37.764Z,12.20
2018-11-03T02:33:12.312Z,12.20
2018-11-03T02:33:46.902Z,12.30
2018-11-03T02:34:21.728Z,12.20
2018-11-03T02:34:56.261Z,12.20
2018-11-03T02:35:30.961Z,12.20
2018-11-03T02:36:05.481Z,12.20
2018-11-03T02:36:40.141Z,12.20
2018-11-03T02:37:14.881Z,12.20
2018-11-03T02:37:49.561Z,12.20
2018-11-03T02:38:24.221Z,12.20
2018-11-03T02:38:58.921Z,12.20
2018-11-03T02:39:33.521Z,12.20
2018-11-03T02:40:09.881Z,12.20
2018-11-03T02:40:44.328Z,12.20
2018-11-03T02:41:18.982Z,12.20
2018-11-03T02:41:53.561Z,12.30
2018-11-03T02:42:28.201Z,12.20
2018-11-03T02:43:02.721Z,12.20
2018-11-03T02:43:37.341Z,12.30
2018-11-03T02:44:12.021Z,12.30
2018-11-03T02:44:46.720Z,12.30
2018-11-03T02:45:21.282Z,12.30
2018-11-03T02:45:55.981Z,12.30
2018-11-03T02:46:30.522Z,12.30
2018-11-03T02:47:05.100Z,12.30
2018-11-03T02:47:40.001Z,12.30
2018-11-03T02:48:14.549Z,12.30
2018-11-03T02:48:48.981Z,12.30
2018-11-03T02:49:23.641Z,12.30
2018-11-03T02:49:58.242Z,12.30
2018-11-03T02:50:32.883Z,12.30
2018-11-03T02:51:07.521Z,12.30
2018-11-03T02:51:42.181Z,12.30
2018-11-03T02:52:16.845Z,12.30
2018-11-03T02:52:51.441Z,12.30
2018-11-03T02:53:25.942Z,12.20
2018-11-03T02:54:00.528Z,12.30
2018-11-03T02:54:35.064Z,12.30
2018-11-03T02:55:09.601Z,12.30
2018-11-03T02:55:44.181Z,12.30
2018-11-03T02:56:18.861Z,12.30
2018-11-03T02:56:53.402Z,12.30
2018-11-03T02:57:27.984Z,12.30
2018-11-03T02:58:03.043Z,12.30
2018-11-03T02:58:38.161Z,12.20
2018-11-03T02:59:13.162Z,12.20
2018-11-03T02:59:47.943Z,12.30
2018-11-03T03:00:22.928Z,12.20
2018-11-03T03:00:57.621Z,12.30
2018-11-03T03:01:32.700Z,12.20
2018-11-03T03:02:07.721Z,12.30
2018-11-03T03:02:42.381Z,12.30
2018-11-03T03:03:17.264Z,12.30
2018-11-03T03:03:52.001Z,12.30
2018-11-03T03:04:26.787Z,12.30
2018-11-03T03:05:01.242Z,12.30
2018-11-03T03:05:36.221Z,12.20
2018-11-03T03:06:10.841Z,12.20
2018-11-03T03:06:45.601Z,12.30
2018-11-03T03:07:20.660Z,12.30
2018-11-03T03:07:55.411Z,12.30
2018-11-03T03:08:30.284Z,12.30
2018-11-03T03:09:05.301Z,12.30
2018-11-03T03:09:39.881Z,12.30
2018-11-03T03:10:14.944Z,12.30
2018-11-03T03:10:49.981Z,12.30
2018-11-03T03:11:24.561Z,12.30
2018-11-03T03:11:59.322Z,12.30
2018-11-03T03:12:34.249Z,12.30
2018-11-03T03:13:09.361Z,12.30
2018-11-03T03:13:44.220Z,12.30
2018-11-03T03:14:18.801Z,12.30
2018-11-03T03:14:53.400Z,12.30
2018-11-03T03:15:28.840Z,12.30
2018-11-03T03:16:03.741Z,12.20
2018-11-03T03:16:38.481Z,12.20
2018-11-03T03:17:13.361Z,12.20
2018-11-03T03:17:48.221Z,12.20
2018-11-03T03:18:22.942Z,12.30
2018-11-03T03:18:57.861Z,12.20
2018-11-03T03:19:32.640Z,12.20
2018-11-03T03:20:09.041Z,12.30
2018-11-03T03:20:43.701Z,12.30
2018-11-03T03:21:18.781Z,12.30
2018-11-03T03:21:53.663Z,12.30
2018-11-03T03:22:28.700Z,12.30
2018-11-03T03:23:03.421Z,12.30
2018-11-03T03:23:38.061Z,12.30
2018-11-03T03:24:12.801Z,12.30
2018-11-03T03:24:47.401Z,12.30
2018-11-03T03:25:21.941Z,12.30
2018-11-03T03:25:56.641Z,12.30
2018-11-03T03:26:31.204Z,12.30
2018-11-03T03:27:06.120Z,12.30
2018-11-03T03:27:40.874Z,12.30
2018-11-03T03:28:15.643Z,12.30
2018-11-03T03:28:50.476Z,12.30
2018-11-03T03:29:25.252Z,12.30
2018-11-03T03:29:59.921Z,12.30
2018-11-03T03:30:34.521Z,12.30
2018-11-03T03:31:09.169Z,12.30
2018-11-03T03:31:50.641Z,12.30
2018-11-03T03:32:25.341Z,12.30
2018-11-03T03:32:59.961Z,12.30
2018-11-03T03:33:34.900Z,12.30
2018-11-03T03:34:09.761Z,12.30
2018-11-03T03:34:44.281Z,12.30
2018-11-03T03:35:19.081Z,12.30
2018-11-03T03:35:53.741Z,12.30
2018-11-03T03:36:28.381Z,12.30
2018-11-03T03:37:03.161Z,12.30
2018-11-03T03:37:38.001Z,12.40
2018-11-03T03:38:12.725Z,12.30
2018-11-03T03:38:47.361Z,12.30
2018-11-03T03:39:21.941Z,12.30
2018-11-03T03:39:56.831Z,12.40
2018-11-03T03:40:31.661Z,12.30
2018-11-03T03:41:06.521Z,12.40
2018-11-03T03:41:41.449Z,12.30
2018-11-03T03:42:16.281Z,12.30
2018-11-03T03:42:50.912Z,12.30
2018-11-03T03:43:25.661Z,12.30
2018-11-03T03:44:00.189Z,12.30
2018-11-03T03:44:34.761Z,12.30
2018-11-03T03:45:10.181Z,12.30
2018-11-03T03:45:44.760Z,12.30
2018-11-03T03:46:19.520Z,12.40
2018-11-03T03:46:54.161Z,12.40
2018-11-03T03:47:28.920Z,12.40
2018-11-03T03:48:03.641Z,12.40
2018-11-03T03:48:38.340Z,12.40
2018-11-03T03:49:13.481Z,12.40
2018-11-03T03:49:48.221Z,12.40
2018-11-03T03:50:23.130Z,12.40
2018-11-03T03:50:57.741Z,12.40
2018-11-03T03:51:32.464Z,12.40
2018-11-03T03:52:07.021Z,12.40
2018-11-03T03:52:41.752Z,12.30
2018-11-03T03:53:16.411Z,12.30
2018-11-03T03:53:51.021Z,12.30
2018-11-03T03:54:25.709Z,12.40
2018-11-03T03:55:00.265Z,12.30
2018-11-03T03:55:34.920Z,12.30
2018-11-03T03:56:09.463Z,12.30
2018-11-03T03:56:44.003Z,12.30
2018-11-03T03:57:19.001Z,12.30
2018-11-03T03:57:53.681Z,12.40
2018-11-03T03:58:28.200Z,12.30
2018-11-03T03:59:03.409Z,12.30
2018-11-03T03:59:38.021Z,12.40
2018-11-03T04:00:13.161Z,12.40
2018-11-03T04:00:47.761Z,12.40
2018-11-03T04:01:22.248Z,12.40
2018-11-03T04:01:56.700Z,12.40
2018-11-03T04:02:31.339Z,12.40
2018-11-03T04:03:06.109Z,12.40
2018-11-03T04:03:40.801Z,12.40
2018-11-03T04:04:15.421Z,12.40
2018-11-03T04:04:49.941Z,12.40
2018-11-03T04:05:24.640Z,12.40
2018-11-03T04:05:59.181Z,12.40
2018-11-03T04:06:33.865Z,12.30
2018-11-03T04:07:08.200Z,12.30
2018-11-03T04:07:42.882Z,12.40
2018-11-03T04:08:17.522Z,12.30
2018-11-03T04:08:52.182Z,12.30
2018-11-03T04:09:26.762Z,12.30
2018-11-03T04:10:01.443Z,12.30
2018-11-03T04:10:35.981Z,12.40
2018-11-03T04:11:10.662Z,12.30
2018-11-03T04:11:45.181Z,12.30
2018-11-03T04:12:20.021Z,12.30
2018-11-03T04:12:54.421Z,12.30
2018-11-03T04:13:29.205Z,12.30
2018-11-03T04:14:03.849Z,12.30
2018-11-03T04:14:38.441Z,12.30
2018-11-03T04:15:13.001Z,12.30
2018-11-03T04:15:47.641Z,12.30
2018-11-03T04:16:22.210Z,12.30
2018-11-03T04:16:56.782Z,12.30
2018-11-03T04:17:31.441Z,12.30
2018-11-03T04:18:06.135Z,12.30
2018-11-03T04:18:40.801Z,12.30
2018-11-03T04:19:15.421Z,12.30
2018-11-03T04:19:49.841Z,12.30
2018-11-03T04:20:24.541Z,12.30
2018-11-03T04:20:59.021Z,12.30
2018-11-03T04:21:33.521Z,12.30
2018-11-03T04:22:08.161Z,12.30
2018-11-03T04:22:42.703Z,12.30
2018-11-03T04:23:17.281Z,12.30
2018-11-03T04:23:51.929Z,12.30
2018-11-03T04:24:26.622Z,12.30
2018-11-03T04:25:01.148Z,12.30
2018-11-03T04:25:35.881Z,12.30
2018-11-03T04:26:10.512Z,12.30
2018-11-03T04:26:45.181Z,12.30
2018-11-03T04:27:19.821Z,12.30
2018-11-03T04:27:54.522Z,12.30
2018-11-03T04:29:32.481Z,12.30
2018-11-03T04:30:09.461Z,12.30
2018-11-03T04:30:44.161Z,12.30
2018-11-03T04:31:18.801Z,12.30
2018-11-03T04:31:53.421Z,12.30
2018-11-03T04:32:27.981Z,12.30
2018-11-03T04:33:02.601Z,12.30
2018-11-03T04:33:37.062Z,12.30
2018-11-03T04:34:11.741Z,12.30
2018-11-03T04:34:46.441Z,12.30
2018-11-03T04:35:21.088Z,12.30
2018-11-03T04:35:55.659Z,12.30
2018-11-03T04:36:30.322Z,12.30
2018-11-03T04:37:04.810Z,12.30
2018-11-03T04:37:39.717Z,12.30
2018-11-03T04:38:14.432Z,12.30
2018-11-03T04:38:49.205Z,12.30
2018-11-03T04:39:23.872Z,12.30
2018-11-03T04:39:58.572Z,12.30
2018-11-03T04:40:33.291Z,12.30
2018-11-03T04:41:08.012Z,12.30
2018-11-03T04:41:42.696Z,12.30
2018-11-03T04:42:17.432Z,12.30
2018-11-03T04:42:52.172Z,12.30
2018-11-03T04:43:26.872Z,12.30
2018-11-03T04:44:01.521Z,12.30
2018-11-03T04:44:36.192Z,12.30
2018-11-03T04:45:11.714Z,12.30
2018-11-03T04:45:46.312Z,12.30
2018-11-03T04:46:20.972Z,12.30
2018-11-03T04:46:55.532Z,12.30
2018-11-03T04:47:30.272Z,12.30
2018-11-03T04:48:04.813Z,12.30
2018-11-03T04:48:39.493Z,12.30
2018-11-03T04:49:14.132Z,12.30
2018-11-03T04:49:48.812Z,12.30
2018-11-03T04:50:23.514Z,12.30
2018-11-03T04:50:58.252Z,12.30
2018-11-03T04:51:34.412Z,12.30
2018-11-03T04:52:09.280Z,12.30
2018-11-03T04:52:43.952Z,12.30
2018-11-03T04:53:18.652Z,12.30
2018-11-03T04:53:53.452Z,12.30
2018-11-03T04:54:28.058Z,12.30
2018-11-03T04:55:02.921Z,12.30
2018-11-03T04:55:37.852Z,12.30
2018-11-03T04:56:12.747Z,12.30
2018-11-03T04:56:47.462Z,12.30
2018-11-03T04:57:22.152Z,12.30
2018-11-03T04:57:56.792Z,12.30
2018-11-03T04:58:31.707Z,12.30
2018-11-03T04:59:06.673Z,12.30
2018-11-03T04:59:41.451Z,12.30
2018-11-03T05:00:16.160Z,12.30
2018-11-03T05:00:50.952Z,12.30
2018-11-03T05:01:25.672Z,12.30
2018-11-03T05:02:00.453Z,12.30
2018-11-03T05:02:35.072Z,12.40
2018-11-03T05:03:09.872Z,12.40
2018-11-03T05:03:44.672Z,12.40
2018-11-03T05:04:19.432Z,12.40
2018-11-03T05:04:54.173Z,12.30
2018-11-03T05:05:29.149Z,12.30
2018-11-03T05:06:03.752Z,12.30
2018-11-03T05:06:38.572Z,12.40
2018-11-03T05:07:13.452Z,12.30
2018-11-03T05:07:48.072Z,12.30
2018-11-03T05:08:23.091Z,12.30
2018-11-03T05:08:58.092Z,12.30
2018-11-03T05:09:33.022Z,12.30
2018-11-03T05:10:08.470Z,12.30
2018-11-03T05:10:43.032Z,12.40
2018-11-03T05:11:20.892Z,12.40
2018-11-03T05:11:55.760Z,12.40
2018-11-03T05:12:30.812Z,12.30
2018-11-03T05:13:05.533Z,12.40
2018-11-03T05:13:40.420Z,12.40
2018-11-03T05:14:15.112Z,12.40
2018-11-03T05:14:49.772Z,12.40
2018-11-03T05:16:27.672Z,12.30
2018-11-03T05:17:02.452Z,12.40
2018-11-03T05:17:37.372Z,12.40
2018-11-03T05:18:12.092Z,12.40
2018-11-03T05:18:46.671Z,12.40
2018-11-03T05:19:21.373Z,12.30
2018-11-03T05:19:56.052Z,12.40
2018-11-03T05:20:30.713Z,12.40
2018-11-03T05:21:05.514Z,12.30
2018-11-03T05:21:40.352Z,12.30
2018-11-03T05:22:14.971Z,12.40
2018-11-03T05:22:49.691Z,12.40
2018-11-03T05:23:24.431Z,12.40
2018-11-03T05:23:59.132Z,12.40
2018-11-03T05:24:34.013Z,12.40
2018-11-03T05:25:08.902Z,12.40
2018-11-03T05:25:43.636Z,12.40
2018-11-03T05:26:18.455Z,12.40
2018-11-03T05:26:53.252Z,12.40
2018-11-03T05:27:27.992Z,12.40
2018-11-03T05:28:02.673Z,12.40
2018-11-03T05:28:37.374Z,12.40
2018-11-03T05:29:12.132Z,12.40
2018-11-03T05:29:46.760Z,12.40
2018-11-03T05:30:21.488Z,12.40
2018-11-03T05:30:56.137Z,12.40
2018-11-03T05:31:30.812Z,12.40
2018-11-03T05:32:05.612Z,12.40
2018-11-03T05:32:40.209Z,12.40
2018-11-03T05:33:14.896Z,12.40
2018-11-03T05:33:49.612Z,12.40
2018-11-03T05:34:24.192Z,12.40
2018-11-03T05:34:58.840Z,12.40
2018-11-03T05:35:33.432Z,12.40
2018-11-03T05:36:08.092Z,12.40
2018-11-03T05:36:48.532Z,12.40
2018-11-03T05:37:23.731Z,12.40
2018-11-03T05:37:58.471Z,12.40
2018-11-03T05:38:33.112Z,12.40
2018-11-03T05:39:10.733Z,12.40
2018-11-03T05:39:45.651Z,12.30
2018-11-03T05:40:20.292Z,12.30
2018-11-03T05:40:55.112Z,12.40
2018-11-03T05:41:29.791Z,12.40
2018-11-03T05:42:04.532Z,12.30
2018-11-03T05:42:39.540Z,12.30
2018-11-03T05:43:14.231Z,12.30
2018-11-03T05:43:48.852Z,12.40
2018-11-03T05:44:23.643Z,12.30
2018-11-03T05:44:58.435Z,12.30
2018-11-03T05:45:33.353Z,12.40
2018-11-03T05:46:08.052Z,12.30
2018-11-03T05:46:43.003Z,12.40
2018-11-03T05:47:17.632Z,12.40
2018-11-03T05:47:52.272Z,12.40
2018-11-03T05:48:26.960Z,12.40
2018-11-03T05:49:01.860Z,12.40
2018-11-03T05:49:36.513Z,12.40
2018-11-03T05:50:11.872Z,12.40
2018-11-03T05:50:46.561Z,12.40
2018-11-03T05:51:21.432Z,12.40
2018-11-03T05:51:56.160Z,12.30
2018-11-03T05:52:30.816Z,12.40
2018-11-03T05:53:05.512Z,12.40
2018-11-03T05:53:40.332Z,12.40
2018-11-03T05:54:15.032Z,12.30
2018-11-03T05:54:49.832Z,12.40
2018-11-03T05:55:24.592Z,12.30
2018-11-03T05:55:59.342Z,12.30
2018-11-03T05:56:34.061Z,12.40
2018-11-03T05:57:09.035Z,12.30
2018-11-03T05:57:43.683Z,12.30
2018-11-03T05:58:18.432Z,12.30
2018-11-03T05:58:53.371Z,12.30
2018-11-03T05:59:27.952Z,12.30
2018-11-03T06:00:02.574Z,12.40
2018-11-03T06:00:37.314Z,12.40
2018-11-03T06:01:12.112Z,12.40
2018-11-03T06:01:46.827Z,12.40
2018-11-03T06:02:21.532Z,12.40
2018-11-03T06:02:56.972Z,12.40
2018-11-03T06:03:31.932Z,12.40
2018-11-03T06:04:06.775Z,12.30
2018-11-03T06:04:41.412Z,12.40
2018-11-03T06:05:16.292Z,12.30
2018-11-03T06:05:51.192Z,12.40
2018-11-03T06:06:26.112Z,12.30
2018-11-03T06:07:01.154Z,12.30
2018-11-03T06:07:35.812Z,12.30
2018-11-03T06:08:10.520Z,12.30
2018-11-03T06:08:45.403Z,12.30
2018-11-03T06:09:20.160Z,12.30
2018-11-03T06:09:54.762Z,12.30
2018-11-03T06:10:29.340Z,12.40
2018-11-03T06:11:03.941Z,12.30
2018-11-03T06:11:38.581Z,12.40
2018-11-03T06:12:13.140Z,12.30
2018-11-03T06:12:47.821Z,12.30
2018-11-03T06:13:22.442Z,12.30
2018-11-03T06:13:57.121Z,12.30
2018-11-03T06:14:31.781Z,12.30
2018-11-03T06:15:06.482Z,12.30
2018-11-03T06:15:41.239Z,12.30
2018-11-03T06:16:15.946Z,12.30
2018-11-03T06:16:50.561Z,12.30
2018-11-03T06:17:25.223Z,12.30
2018-11-03T06:17:59.923Z,12.30
2018-11-03T06:18:34.441Z,12.30
2018-11-03T06:19:09.142Z,12.30
2018-11-03T06:19:43.560Z,12.30
2018-11-03T06:20:18.380Z,12.30
2018-11-03T06:20:53.040Z,12.30
2018-11-03T06:21:27.762Z,12.30
2018-11-03T06:22:02.361Z,12.30
2018-11-03T06:22:36.969Z,12.30
2018-11-03T06:23:11.597Z,12.30
2018-11-03T06:23:46.261Z,12.30
2018-11-03T06:24:20.861Z,12.30
2018-11-03T06:24:55.661Z,12.30
2018-11-03T06:25:30.440Z,12.30
2018-11-03T06:26:05.040Z,12.30
2018-11-03T06:26:40.003Z,12.30
2018-11-03T06:27:14.569Z,12.30
2018-11-03T06:27:49.057Z,12.30
2018-11-03T06:28:23.702Z,12.30
2018-11-03T06:28:58.241Z,12.30
2018-11-03T06:29:32.780Z,12.30
2018-11-03T06:30:09.103Z,12.30
2018-11-03T06:30:43.740Z,12.30
2018-11-03T06:31:18.681Z,12.30
2018-11-03T06:31:53.400Z,12.30
2018-11-03T06:32:27.988Z,12.30
2018-11-03T06:33:02.680Z,12.30
2018-11-03T06:33:37.241Z,12.30
2018-11-03T06:34:11.949Z,12.30
2018-11-03T06:34:46.543Z,12.30
2018-11-03T06:35:21.309Z,12.30
2018-11-03T06:35:55.941Z,12.30
2018-11-03T06:36:30.628Z,12.30
2018-11-03T06:37:05.464Z,12.30
2018-11-03T06:37:40.080Z,12.30
2018-11-03T06:38:14.702Z,12.30
2018-11-03T06:38:49.360Z,12.30
2018-11-03T06:39:23.880Z,12.30
2018-11-03T06:39:58.541Z,12.20
2018-11-03T06:40:33.180Z,12.20
2018-11-03T06:41:07.783Z,12.20
2018-11-03T06:41:42.420Z,12.20
2018-11-03T06:42:17.185Z,12.30
2018-11-03T06:42:51.880Z,12.20
2018-11-03T06:43:26.457Z,12.20
2018-11-03T06:44:01.260Z,12.20
2018-11-03T06:44:35.921Z,12.20
2018-11-03T06:45:11.020Z,12.20
2018-11-03T06:45:45.561Z,12.20
2018-11-03T06:46:20.663Z,12.20
2018-11-03T06:46:55.809Z,12.20
2018-11-03T06:47:30.710Z,12.20
2018-11-03T06:48:05.903Z,12.20
2018-11-03T06:48:40.640Z,12.20
2018-11-03T06:49:20.402Z,12.20
2018-11-03T06:49:55.598Z,12.20
2018-11-03T06:50:30.520Z,12.20
2018-11-03T06:51:05.281Z,12.20
2018-11-03T06:51:39.868Z,12.10
2018-11-03T06:52:14.583Z,12.10
2018-11-03T06:52:49.200Z,12.20
2018-11-03T06:53:23.742Z,12.20
2018-11-03T06:53:58.222Z,12.20
2018-11-03T06:54:32.941Z,12.20
2018-11-03T06:55:08.220Z,12.10
2018-11-03T06:55:42.766Z,12.10
2018-11-03T06:56:17.400Z,12.10
2018-11-03T06:56:51.968Z,12.10
2018-11-03T06:57:26.742Z,12.10
2018-11-03T06:58:01.524Z,12.10
2018-11-03T06:58:36.216Z,12.10
2018-11-03T06:59:10.802Z,12.20
2018-11-03T06:59:45.384Z,12.10
2018-11-03T07:00:20.001Z,12.10
2018-11-03T07:00:54.601Z,12.10
2018-11-03T07:01:29.326Z,12.10
2018-11-03T07:02:04.363Z,12.10
2018-11-03T07:02:39.021Z,12.10
2018-11-03T07:03:14.108Z,12.10
2018-11-03T07:03:49.160Z,12.10
2018-11-03T07:04:24.248Z,12.10
2018-11-03T07:04:58.982Z,12.10
2018-11-03T07:05:33.641Z,12.00
2018-11-03T07:06:08.391Z,12.00
2018-11-03T07:06:43.329Z,12.00
2018-11-03T07:07:18.222Z,12.00
2018-11-03T07:07:53.101Z,12.00
2018-11-03T07:08:28.103Z,12.00
2018-11-03T07:09:02.966Z,12.00
2018-11-03T07:09:37.602Z,11.90
2018-11-03T07:10:12.542Z,11.90
2018-11-03T07:10:47.200Z,12.00
2018-11-03T07:11:21.846Z,11.90
2018-11-03T07:11:56.530Z,12.00
2018-11-03T07:12:31.540Z,11.90
2018-11-03T07:13:06.498Z,11.90
2018-11-03T07:13:41.361Z,11.90
2018-11-03T07:14:16.064Z,11.90
2018-11-03T07:14:50.942Z,11.90
2018-11-03T07:15:25.566Z,11.80
2018-11-03T07:16:07.192Z,11.80
2018-11-03T07:16:42.061Z,11.80
2018-11-03T07:17:17.390Z,11.80
2018-11-03T07:17:52.368Z,11.80
2018-11-03T07:18:27.328Z,11.80
2018-11-03T07:19:02.328Z,11.80
2018-11-03T07:19:37.182Z,11.80
2018-11-03T07:20:13.349Z,11.80
2018-11-03T07:20:48.028Z,11.80
2018-11-03T07:21:22.872Z,11.80
2018-11-03T07:21:57.782Z,11.80
2018-11-03T07:22:32.601Z,11.80
2018-11-03T07:23:07.420Z,11.80
2018-11-03T07:23:42.076Z,11.70
2018-11-03T07:24:17.158Z,11.70
2018-11-03T07:24:52.162Z,11.70
2018-11-03T07:25:27.068Z,11.70
2018-11-03T07:26:01.749Z,11.70
2018-11-03T07:26:36.482Z,11.70
2018-11-03T07:27:11.586Z,11.70
2018-11-03T07:27:46.668Z,11.70
2018-11-03T07:28:21.582Z,11.70
2018-11-03T07:28:56.281Z,11.70
2018-11-03T07:29:31.176Z,11.70
2018-11-03T07:30:08.121Z,11.70
2018-11-03T07:30:42.880Z,11.70
2018-11-03T07:31:17.621Z,11.70
2018-11-03T07:31:52.712Z,11.70
2018-11-03T07:32:27.581Z,11.70
2018-11-03T07:33:02.371Z,11.70
2018-11-03T07:33:37.202Z,11.70
2018-11-03T07:34:11.861Z,11.70
2018-11-03T07:34:46.701Z,11.70